createdAt,value
2019-06-08T00:00:55.553Z,0.00
2019-06-08T00:01:55.542Z,0.00
2019-06-08T00:02:55.542Z,0.00
2019-06-08T00:03:55.573Z,0.00
2019-06-08T00:04:55.575Z,0.00
2019-06-08T00:05:55.507Z,0.00
2019-06-08T00:06:55.529Z,0.00
2019-06-08T00:07:55.511Z,0.00
2019-06-08T00:08:55.481Z,0.00
2019-06-08T00:09:55.472Z,0.00
2019-06-08T00:10:55.482Z,0.00
2019-06-08T00:11:55.468Z,0.00
2019-06-08T00:12:55.434Z,0.00
2019-06-08T00:13:55.440Z,0.00
2019-06-08T00:14:55.402Z,0.00
2019-06-08T00:15:55.386Z,0.00
2019-06-08T00:16:55.420Z,0.00
2019-06-08T00:17:55.379Z,0.00
2019-06-08T00:18:55.350Z,0.00
2019-06-08T00:19:55.342Z,0.00
2019-06-08T00:20:55.332Z,0.00
2019-06-08T00:21:55.368Z,0.00
2019-06-08T00:22:55.346Z,0.00
2019-06-08T00:23:55.304Z,0.00
2019-06-08T00:24:55.293Z,0.00
2019-06-08T00:25:55.272Z,0.00
2019-06-08T00:26:55.284Z,0.00
2019-06-08T00:27:55.252Z,0.00
2019-06-08T00:28:55.284Z,0.00
2019-06-08T00:29:55.310Z,0.00
2019-06-08T00:30:55.214Z,0.00
2019-06-08T00:31:55.233Z,0.00
2019-06-08T00:32:55.196Z,0.00
2019-06-08T00:33:55.186Z,0.00
2019-06-08T00:34:55.254Z,0.00
2019-06-08T00:35:55.160Z,0.00
2019-06-08T00:36:55.148Z,0.00
2019-06-08T00:37:55.154Z,0.00
2019-06-08T00:38:55.128Z,0.00
2019-06-08T00:39:55.118Z,0.00
2019-06-08T00:40:55.170Z,0.00
2019-06-08T00:41:55.122Z,0.00
2019-06-08T00:42:55.108Z,0.00
2019-06-08T00:43:55.073Z,0.00
2019-06-08T00:44:55.111Z,0.00
2019-06-08T00:45:55.052Z,0.00
2019-06-08T00:46:55.076Z,0.00
2019-06-08T00:47:55.035Z,0.00
2019-06-08T00:48:55.034Z,0.00
2019-06-08T00:49:55.010Z,0.00
2019-06-08T00:50:55.000Z,0.00
2019-06-08T00:51:54.985Z,0.00
2019-06-08T00:52:55.149Z,0.00
2019-06-08T00:53:54.977Z,0.00
2019-06-08T00:54:54.967Z,0.00
2019-06-08T00:55:54.938Z,0.00
2019-06-08T00:56:54.928Z,0.00
2019-06-08T00:57:54.910Z,0.00
2019-06-08T00:58:55.002Z,0.00
2019-06-08T00:59:54.926Z,0.00
2019-06-08T01:00:54.882Z,0.00
2019-06-08T01:01:54.879Z,0.00
2019-06-08T01:02:54.883Z,0.00
2019-06-08T01:03:54.852Z,0.00
2019-06-08T01:04:54.885Z,0.00
2019-06-08T01:05:54.844Z,0.00
2019-06-08T01:06:54.838Z,0.00
2019-06-08T01:07:54.845Z,0.00
2019-06-08T01:08:54.793Z,0.00
2019-06-08T01:09:54.820Z,0.00
2019-06-08T01:10:54.818Z,0.00
2019-06-08T01:11:54.778Z,0.00
2019-06-08T01:12:54.755Z,0.00
2019-06-08T01:13:54.735Z,0.00
2019-06-08T01:14:54.728Z,0.00
2019-06-08T01:15:54.724Z,0.00
2019-06-08T01:16:54.735Z,0.00
2019-06-08T01:18:02.521Z,0.00
2019-06-08T01:18:55.677Z,0.00
2019-06-08T01:19:54.668Z,0.00
2019-06-08T01:20:54.664Z,0.00
2019-06-08T01:21:54.643Z,0.00
2019-06-08T01:22:54.677Z,0.00
2019-06-08T01:23:54.630Z,0.00
2019-06-08T01:24:54.622Z,0.00
2019-06-08T01:25:54.610Z,0.00
2019-06-08T01:26:54.592Z,0.00
2019-06-08T01:27:54.578Z,0.00
2019-06-08T01:28:54.611Z,0.00
2019-06-08T01:29:54.600Z,0.00
2019-06-08T01:30:54.559Z,0.00
2019-06-08T01:31:54.546Z,0.00
2019-06-08T01:32:54.532Z,0.00
2019-06-08T01:33:54.528Z,0.00
2019-06-08T01:34:54.573Z,0.00
2019-06-08T01:35:54.489Z,0.00
2019-06-08T01:36:54.474Z,0.00
2019-06-08T01:37:54.513Z,0.00
2019-06-08T01:38:54.466Z,0.00
2019-06-08T01:39:54.448Z,0.00
2019-06-08T01:40:54.476Z,0.00
2019-06-08T01:41:54.438Z,0.00
2019-06-08T01:42:54.414Z,0.00
2019-06-08T01:43:54.400Z,0.00
2019-06-08T01:44:54.396Z,0.00
2019-06-08T01:45:54.382Z,0.00
2019-06-08T01:46:54.413Z,0.00
2019-06-08T01:47:54.387Z,0.00
2019-06-08T01:48:54.351Z,0.00
2019-06-08T01:49:54.343Z,0.00
2019-06-08T01:50:54.325Z,0.00
2019-06-08T01:51:54.314Z,0.00
2019-06-08T01:52:54.388Z,0.00
2019-06-08T01:53:54.286Z,0.00
2019-06-08T01:54:54.286Z,0.00
2019-06-08T01:55:54.283Z,0.00
2019-06-08T01:56:54.260Z,0.00
2019-06-08T01:57:54.247Z,0.00
2019-06-08T01:58:54.282Z,0.00
2019-06-08T01:59:54.238Z,0.00
2019-06-08T02:00:54.209Z,0.00
2019-06-08T02:01:54.207Z,0.00
2019-06-08T02:02:54.185Z,0.00
2019-06-08T02:03:54.210Z,0.00
2019-06-08T02:04:54.346Z,0.00
2019-06-08T02:05:54.165Z,0.00
2019-06-08T02:06:54.145Z,0.00
2019-06-08T02:07:54.148Z,0.00
2019-06-08T02:08:54.133Z,0.00
2019-06-08T02:09:54.160Z,0.00
2019-06-08T02:10:54.153Z,0.00
2019-06-08T02:11:54.086Z,0.00
2019-06-08T02:12:54.111Z,0.00
2019-06-08T02:13:54.078Z,0.00
2019-06-08T02:14:54.070Z,0.00
2019-06-08T02:15:54.046Z,0.00
2019-06-08T02:16:54.096Z,0.00
2019-06-08T02:17:54.043Z,0.00
2019-06-08T02:18:54.005Z,0.00
2019-06-08T02:19:53.996Z,0.00
2019-06-08T02:20:54.012Z,0.00
2019-06-08T02:21:53.973Z,0.00
2019-06-08T02:22:54.024Z,0.00
2019-06-08T02:23:53.955Z,0.00
2019-06-08T02:24:53.956Z,0.00
2019-06-08T02:25:53.937Z,0.00
2019-06-08T02:26:53.935Z,0.00
2019-06-08T02:27:53.932Z,0.00
2019-06-08T02:28:53.950Z,0.00
2019-06-08T02:29:53.886Z,0.00
2019-06-08T02:30:53.881Z,0.00
2019-06-08T02:31:53.864Z,0.00
2019-06-08T02:32:53.854Z,0.00
2019-06-08T02:33:53.844Z,0.00
2019-06-08T02:34:53.890Z,0.00
2019-06-08T02:35:53.819Z,0.00
2019-06-08T02:36:53.812Z,0.00
2019-06-08T02:37:53.798Z,0.00
2019-06-08T02:38:53.785Z,0.00
2019-06-08T02:39:53.786Z,0.00
2019-06-08T02:40:53.816Z,0.00
2019-06-08T02:41:53.748Z,0.00
2019-06-08T02:42:53.752Z,0.00
2019-06-08T02:43:53.726Z,0.00
2019-06-08T02:44:53.721Z,0.00
2019-06-08T02:45:53.703Z,0.00
2019-06-08T02:46:53.733Z,0.00
2019-06-08T02:47:53.685Z,0.00
2019-06-08T02:49:03.254Z,0.00
2019-06-08T02:49:54.662Z,0.00
2019-06-08T02:50:53.664Z,0.00
2019-06-08T02:51:53.640Z,0.00
2019-06-08T02:52:53.662Z,0.00
2019-06-08T02:53:53.629Z,0.00
2019-06-08T02:54:53.604Z,0.00
2019-06-08T02:55:53.595Z,0.00
2019-06-08T02:56:53.596Z,0.00
2019-06-08T02:57:53.572Z,0.00
2019-06-08T02:58:53.615Z,0.00
2019-06-08T02:59:53.561Z,0.00
2019-06-08T03:00:53.550Z,0.00
2019-06-08T03:01:53.530Z,0.00
2019-06-08T03:02:53.528Z,0.00
2019-06-08T03:03:53.507Z,0.00
2019-06-08T03:04:53.550Z,0.00
2019-06-08T03:05:53.479Z,0.00
2019-06-08T03:06:53.474Z,0.00
2019-06-08T03:07:53.489Z,0.00
2019-06-08T03:08:53.451Z,0.00
2019-06-08T03:09:53.451Z,0.00
2019-06-08T03:10:53.480Z,5.62
2019-06-08T03:11:53.423Z,5.62
2019-06-08T03:12:53.410Z,5.62
2019-06-08T03:13:53.459Z,5.62
2019-06-08T03:14:53.393Z,5.62
2019-06-08T03:15:53.389Z,5.62
2019-06-08T03:16:53.401Z,5.62
2019-06-08T03:17:53.349Z,5.62
2019-06-08T03:18:53.342Z,5.62
2019-06-08T03:19:53.321Z,11.25
2019-06-08T03:20:53.312Z,11.25
2019-06-08T03:21:53.320Z,11.25
2019-06-08T03:22:53.345Z,11.25
2019-06-08T03:23:53.276Z,11.25
2019-06-08T03:24:53.267Z,11.25
2019-06-08T03:25:53.667Z,16.88
2019-06-08T03:26:53.263Z,16.88
2019-06-08T03:27:53.282Z,16.88
2019-06-08T03:28:53.282Z,16.88
2019-06-08T03:29:53.206Z,16.88
2019-06-08T03:30:55.070Z,16.88
2019-06-08T03:31:56.346Z,22.50
2019-06-08T03:32:56.346Z,22.50
2019-06-08T03:33:56.143Z,22.50
2019-06-08T03:34:56.375Z,22.50
2019-06-08T03:35:57.738Z,22.50
2019-06-08T03:36:57.066Z,28.12
2019-06-08T03:37:53.154Z,28.12
2019-06-08T03:38:53.998Z,28.12
2019-06-08T03:39:53.108Z,33.75
2019-06-08T03:40:53.126Z,33.75
2019-06-08T03:41:53.076Z,33.75
2019-06-08T03:42:53.672Z,33.75
2019-06-08T03:43:53.069Z,39.38
2019-06-08T03:44:53.099Z,39.38
2019-06-08T03:45:53.035Z,39.38
2019-06-08T03:46:53.167Z,39.38
2019-06-08T03:47:53.012Z,45.00
2019-06-08T03:48:53.016Z,45.00
2019-06-08T03:49:57.365Z,45.00
2019-06-08T03:50:53.020Z,45.00
2019-06-08T03:51:52.967Z,50.62
2019-06-08T03:52:53.000Z,50.62
2019-06-08T03:53:53.011Z,50.62
2019-06-08T03:54:52.958Z,50.62
2019-06-08T03:55:52.940Z,50.62
2019-06-08T03:56:52.920Z,50.62
2019-06-08T03:57:52.907Z,50.62
2019-06-08T03:58:52.974Z,50.62
2019-06-08T03:59:52.893Z,50.62
2019-06-08T04:00:52.883Z,50.62
2019-06-08T04:01:52.863Z,50.62
2019-06-08T04:02:52.847Z,50.62
2019-06-08T04:03:52.851Z,56.25
2019-06-08T04:04:52.870Z,61.88
2019-06-08T04:05:52.827Z,61.88
2019-06-08T04:06:52.799Z,61.88
2019-06-08T04:07:52.787Z,56.25
2019-06-08T04:08:52.775Z,56.25
2019-06-08T04:09:52.771Z,56.25
2019-06-08T04:10:52.824Z,61.88
2019-06-08T04:11:52.759Z,61.88
2019-06-08T04:12:52.730Z,61.88
2019-06-08T04:13:52.746Z,73.12
2019-06-08T04:14:52.725Z,78.75
2019-06-08T04:15:52.719Z,78.75
2019-06-08T04:16:52.765Z,78.75
2019-06-08T04:17:52.679Z,90.00
2019-06-08T04:18:52.679Z,90.00
2019-06-08T04:20:09.670Z,95.62
2019-06-08T04:20:53.640Z,101.25
2019-06-08T04:21:52.629Z,106.88
2019-06-08T04:22:52.663Z,112.50
2019-06-08T04:23:52.621Z,118.12
2019-06-08T04:24:52.619Z,123.75
2019-06-08T04:25:52.602Z,123.75
2019-06-08T04:26:52.593Z,118.12
2019-06-08T04:27:52.559Z,123.75
2019-06-08T04:28:52.590Z,123.75
2019-06-08T04:29:52.550Z,135.00
2019-06-08T04:30:52.569Z,135.00
2019-06-08T04:31:52.529Z,140.62
2019-06-08T04:32:52.513Z,135.00
2019-06-08T04:33:52.503Z,135.00
2019-06-08T04:34:52.613Z,140.62
2019-06-08T04:35:52.497Z,140.62
2019-06-08T04:36:52.466Z,146.25
2019-06-08T04:37:52.480Z,146.25
2019-06-08T04:38:52.438Z,151.88
2019-06-08T04:39:52.432Z,163.12
2019-06-08T04:40:52.465Z,168.75
2019-06-08T04:41:52.449Z,180.00
2019-06-08T04:42:52.397Z,191.25
2019-06-08T04:43:52.432Z,191.25
2019-06-08T04:44:52.386Z,202.50
2019-06-08T04:45:52.372Z,213.75
2019-06-08T04:46:52.406Z,213.75
2019-06-08T04:47:52.343Z,225.00
2019-06-08T04:48:52.387Z,230.62
2019-06-08T04:49:52.341Z,219.38
2019-06-08T04:50:52.307Z,225.00
2019-06-08T04:51:52.302Z,241.88
2019-06-08T04:52:52.328Z,241.88
2019-06-08T04:53:52.283Z,241.88
2019-06-08T04:54:52.256Z,247.50
2019-06-08T04:55:52.248Z,253.12
2019-06-08T04:56:52.249Z,247.50
2019-06-08T04:57:52.226Z,241.88
2019-06-08T04:58:52.261Z,241.88
2019-06-08T04:59:52.208Z,241.88
2019-06-08T05:00:52.217Z,236.25
2019-06-08T05:01:52.187Z,225.00
2019-06-08T05:02:52.167Z,225.00
2019-06-08T05:03:52.158Z,219.38
2019-06-08T05:04:52.195Z,219.38
2019-06-08T05:05:52.138Z,213.75
2019-06-08T05:06:52.194Z,196.88
2019-06-08T05:07:52.117Z,202.50
2019-06-08T05:08:52.101Z,208.12
2019-06-08T05:09:52.110Z,213.75
2019-06-08T05:10:52.117Z,213.75
2019-06-08T05:11:52.080Z,208.12
2019-06-08T05:12:52.066Z,202.50
2019-06-08T05:13:52.056Z,202.50
2019-06-08T05:14:52.045Z,196.88
2019-06-08T05:15:52.039Z,191.25
2019-06-08T05:16:52.055Z,196.88
2019-06-08T05:17:51.999Z,196.88
2019-06-08T05:18:51.995Z,191.25
2019-06-08T05:19:51.990Z,185.62
2019-06-08T05:20:52.008Z,185.62
2019-06-08T05:21:51.965Z,185.62
2019-06-08T05:22:52.009Z,180.00
2019-06-08T05:23:58.649Z,180.00
2019-06-08T05:24:52.925Z,180.00
2019-06-08T05:25:51.913Z,180.00
2019-06-08T05:26:51.932Z,185.62
2019-06-08T05:27:51.895Z,185.62
2019-06-08T05:28:51.914Z,185.62
2019-06-08T05:29:51.879Z,191.25
2019-06-08T05:30:51.859Z,191.25
2019-06-08T05:31:51.853Z,202.50
2019-06-08T05:32:51.866Z,202.50
2019-06-08T05:33:51.844Z,202.50
2019-06-08T05:34:51.884Z,213.75
2019-06-08T05:35:51.821Z,213.75
2019-06-08T05:36:51.790Z,219.38
2019-06-08T05:37:51.781Z,230.62
2019-06-08T05:38:51.783Z,230.62
2019-06-08T05:39:51.874Z,236.25
2019-06-08T05:40:51.788Z,236.25
2019-06-08T05:41:51.737Z,236.25
2019-06-08T05:42:51.749Z,241.88
2019-06-08T05:43:51.714Z,247.50
2019-06-08T05:44:51.721Z,258.75
2019-06-08T05:45:51.695Z,264.38
2019-06-08T05:46:51.809Z,264.38
2019-06-08T05:47:51.686Z,275.62
2019-06-08T05:48:51.658Z,281.25
2019-06-08T05:49:51.641Z,292.50
2019-06-08T05:51:03.082Z,298.12
2019-06-08T05:51:52.666Z,315.00
2019-06-08T05:52:51.608Z,337.50
2019-06-08T05:53:51.616Z,354.38
2019-06-08T05:54:51.587Z,365.62
2019-06-08T05:55:51.579Z,371.25
2019-06-08T05:56:51.567Z,382.50
2019-06-08T05:57:51.625Z,388.12
2019-06-08T05:58:51.574Z,388.12
2019-06-08T05:59:51.573Z,393.75
2019-06-08T06:00:51.522Z,382.50
2019-06-08T06:01:51.527Z,388.12
2019-06-08T06:02:51.518Z,382.50
2019-06-08T06:03:51.960Z,365.62
2019-06-08T06:04:53.529Z,354.38
2019-06-08T06:05:51.483Z,348.75
2019-06-08T06:06:51.463Z,348.75
2019-06-08T06:07:51.456Z,337.50
2019-06-08T06:08:51.436Z,337.50
2019-06-08T06:09:51.470Z,337.50
2019-06-08T06:10:51.493Z,331.88
2019-06-08T06:11:51.402Z,326.25
2019-06-08T06:12:51.402Z,315.00
2019-06-08T06:13:51.661Z,298.12
2019-06-08T06:14:51.381Z,281.25
2019-06-08T06:15:51.799Z,275.62
2019-06-08T06:16:51.416Z,275.62
2019-06-08T06:17:51.610Z,258.75
2019-06-08T06:18:52.179Z,253.12
2019-06-08T06:19:51.594Z,236.25
2019-06-08T06:20:51.714Z,225.00
2019-06-08T06:21:51.619Z,230.62
2019-06-08T06:22:52.505Z,236.25
2019-06-08T06:23:51.600Z,258.75
2019-06-08T06:24:51.926Z,281.25
2019-06-08T06:25:51.769Z,281.25
2019-06-08T06:26:51.648Z,337.50
2019-06-08T06:27:51.782Z,337.50
2019-06-08T06:28:51.802Z,348.75
2019-06-08T06:29:52.047Z,354.38
2019-06-08T06:30:52.184Z,365.62
2019-06-08T06:31:52.075Z,343.12
2019-06-08T06:32:51.910Z,405.00
2019-06-08T06:33:52.293Z,382.50
2019-06-08T06:34:52.229Z,427.50
2019-06-08T06:35:52.128Z,483.75
2019-06-08T06:36:52.155Z,450.00
2019-06-08T06:37:52.086Z,393.75
2019-06-08T06:38:52.198Z,388.12
2019-06-08T06:39:52.227Z,405.00
2019-06-08T06:40:52.233Z,444.38
2019-06-08T06:41:52.154Z,478.12
2019-06-08T06:42:52.375Z,495.00
2019-06-08T06:43:52.216Z,472.50
2019-06-08T06:44:52.313Z,455.62
2019-06-08T06:45:52.188Z,495.00
2019-06-08T06:46:52.283Z,455.62
2019-06-08T06:47:52.559Z,461.25
2019-06-08T06:48:52.375Z,433.12
2019-06-08T06:49:50.999Z,393.75
2019-06-08T06:50:50.968Z,416.25
2019-06-08T06:51:50.997Z,455.62
2019-06-08T06:52:50.960Z,410.62
2019-06-08T06:53:50.950Z,365.62
2019-06-08T06:54:51.308Z,315.00
2019-06-08T06:55:51.057Z,303.75
2019-06-08T06:56:51.883Z,320.62
2019-06-08T06:57:51.539Z,292.50
2019-06-08T06:58:51.574Z,320.62
2019-06-08T06:59:51.984Z,320.62
2019-06-08T07:00:51.568Z,309.38
2019-06-08T07:01:54.344Z,315.00
2019-06-08T07:02:51.895Z,320.62
2019-06-08T07:03:52.098Z,298.12
2019-06-08T07:04:52.198Z,292.50
2019-06-08T07:05:51.939Z,298.12
2019-06-08T07:06:52.163Z,292.50
2019-06-08T07:07:50.809Z,320.62
2019-06-08T07:08:50.840Z,320.62
2019-06-08T07:09:50.775Z,309.38
2019-06-08T07:10:50.874Z,315.00
2019-06-08T07:11:50.992Z,337.50
2019-06-08T07:12:50.858Z,348.75
2019-06-08T07:13:50.916Z,343.12
2019-06-08T07:14:51.359Z,371.25
2019-06-08T07:15:54.450Z,365.62
2019-06-08T07:16:52.000Z,354.38
2019-06-08T07:17:53.096Z,360.00
2019-06-08T07:18:50.708Z,371.25
2019-06-08T07:19:50.652Z,365.62
2019-06-08T07:20:50.684Z,382.50
2019-06-08T07:21:50.632Z,427.50
2019-06-08T07:22:50.625Z,416.25
2019-06-08T07:23:51.248Z,348.75
2019-06-08T07:24:50.608Z,388.12
2019-06-08T07:25:50.623Z,365.62
2019-06-08T07:26:50.631Z,348.75
2019-06-08T07:27:50.586Z,371.25
2019-06-08T07:28:52.433Z,371.25
2019-06-08T07:29:50.568Z,337.50
2019-06-08T07:30:50.684Z,393.75
2019-06-08T07:31:51.666Z,382.50
2019-06-08T07:32:50.951Z,348.75
2019-06-08T07:33:51.844Z,388.12
2019-06-08T07:34:51.546Z,421.88
2019-06-08T07:35:51.523Z,450.00
2019-06-08T07:36:51.283Z,438.75
2019-06-08T07:37:51.860Z,438.75
2019-06-08T07:38:51.405Z,371.25
2019-06-08T07:39:51.579Z,348.75
2019-06-08T07:40:51.911Z,405.00
2019-06-08T07:41:51.715Z,433.12
2019-06-08T07:42:51.458Z,438.75
2019-06-08T07:43:50.787Z,461.25
2019-06-08T07:44:50.843Z,489.38
2019-06-08T07:45:50.365Z,466.88
2019-06-08T07:46:51.395Z,455.62
2019-06-08T07:47:50.339Z,416.25
2019-06-08T07:48:50.523Z,421.88
2019-06-08T07:49:51.127Z,416.25
2019-06-08T07:50:50.355Z,438.75
2019-06-08T07:52:05.273Z,483.75
2019-06-08T07:52:52.776Z,551.25
2019-06-08T07:53:51.447Z,556.88
2019-06-08T07:54:50.982Z,517.50
2019-06-08T07:55:51.522Z,573.75
2019-06-08T07:56:51.505Z,585.00
2019-06-08T07:57:50.519Z,568.12
2019-06-08T07:58:51.530Z,511.88
2019-06-08T07:59:50.373Z,466.88
2019-06-08T08:00:52.547Z,545.62
2019-06-08T08:01:50.178Z,506.25
2019-06-08T08:02:50.298Z,495.00
2019-06-08T08:03:50.334Z,613.12
2019-06-08T08:04:50.522Z,624.38
2019-06-08T08:05:50.415Z,562.50
2019-06-08T08:06:50.377Z,551.25
2019-06-08T08:07:50.283Z,455.62
2019-06-08T08:08:50.589Z,450.00
2019-06-08T08:09:50.574Z,427.50
2019-06-08T08:10:50.358Z,382.50
2019-06-08T08:11:50.958Z,410.62
2019-06-08T08:12:50.911Z,348.75
2019-06-08T08:13:51.447Z,371.25
2019-06-08T08:14:51.272Z,421.88
2019-06-08T08:15:50.793Z,489.38
2019-06-08T08:16:50.965Z,573.75
2019-06-08T08:17:52.122Z,495.00
2019-06-08T08:18:51.087Z,427.50
2019-06-08T08:19:51.120Z,399.38
2019-06-08T08:20:51.087Z,371.25
2019-06-08T08:21:51.880Z,438.75
2019-06-08T08:22:56.085Z,438.75
2019-06-08T08:23:51.764Z,427.50
2019-06-08T08:24:52.425Z,427.50
2019-06-08T08:25:50.368Z,388.12
2019-06-08T08:26:51.471Z,427.50
2019-06-08T08:27:50.741Z,433.12
2019-06-08T08:28:51.787Z,551.25
2019-06-08T08:29:50.400Z,658.12
2019-06-08T08:30:51.027Z,691.88
2019-06-08T08:31:50.737Z,691.88
2019-06-08T08:32:51.310Z,613.12
2019-06-08T08:33:51.420Z,556.88
2019-06-08T08:34:50.895Z,556.88
2019-06-08T08:35:51.141Z,663.75
2019-06-08T08:36:51.097Z,686.25
2019-06-08T08:37:53.386Z,748.12
2019-06-08T08:38:51.813Z,770.62
2019-06-08T08:39:50.581Z,787.50
2019-06-08T08:40:51.263Z,765.00
2019-06-08T08:41:53.722Z,759.38
2019-06-08T08:42:52.251Z,697.50
2019-06-08T08:43:51.264Z,708.75
2019-06-08T08:44:51.020Z,663.75
2019-06-08T08:45:50.659Z,618.75
2019-06-08T08:46:51.431Z,646.88
2019-06-08T08:47:50.759Z,765.00
2019-06-08T08:48:50.898Z,860.62
2019-06-08T08:49:50.648Z,821.25
2019-06-08T08:50:50.767Z,815.62
2019-06-08T08:51:50.660Z,815.62
2019-06-08T08:52:50.749Z,804.38
2019-06-08T08:53:53.854Z,804.38
2019-06-08T08:54:50.778Z,776.25
2019-06-08T08:55:49.864Z,770.62
2019-06-08T08:56:52.211Z,776.25
2019-06-08T08:57:51.802Z,725.62
2019-06-08T08:58:51.002Z,652.50
2019-06-08T08:59:51.821Z,590.62
2019-06-08T09:00:50.914Z,545.62
2019-06-08T09:01:51.291Z,556.88
2019-06-08T09:02:59.083Z,511.88
2019-06-08T09:03:54.428Z,523.12
2019-06-08T09:04:50.650Z,579.38
2019-06-08T09:05:51.958Z,472.50
2019-06-08T09:06:50.970Z,579.38
2019-06-08T09:07:49.450Z,540.00
2019-06-08T09:08:49.488Z,500.62
2019-06-08T09:09:49.497Z,433.12
2019-06-08T09:10:49.426Z,500.62
2019-06-08T09:11:49.435Z,573.75
2019-06-08T09:12:49.395Z,511.88
2019-06-08T09:13:49.510Z,540.00
2019-06-08T09:14:49.447Z,511.88
2019-06-08T09:15:49.534Z,511.88
2019-06-08T09:16:49.709Z,511.88
2019-06-08T09:17:52.316Z,495.00
2019-06-08T09:18:49.440Z,489.38
2019-06-08T09:19:49.304Z,444.38
2019-06-08T09:20:49.333Z,495.00
2019-06-08T09:21:49.285Z,466.88
2019-06-08T09:22:56.482Z,461.25
2019-06-08T09:23:52.280Z,427.50
2019-06-08T09:24:49.281Z,421.88
2019-06-08T09:25:49.248Z,438.75
2019-06-08T09:26:49.288Z,466.88
2019-06-08T09:27:49.230Z,495.00
2019-06-08T09:28:49.233Z,483.75
2019-06-08T09:29:49.217Z,551.25
2019-06-08T09:30:49.196Z,540.00
2019-06-08T09:31:49.226Z,540.00
2019-06-08T09:32:49.217Z,573.75
2019-06-08T09:33:55.829Z,517.50
2019-06-08T09:34:50.149Z,545.62
2019-06-08T09:35:49.197Z,444.38
2019-06-08T09:36:49.198Z,405.00
2019-06-08T09:37:49.383Z,466.88
2019-06-08T09:38:49.145Z,483.75
2019-06-08T09:39:49.104Z,455.62
2019-06-08T09:40:49.086Z,427.50
2019-06-08T09:41:49.076Z,433.12
2019-06-08T09:42:51.419Z,444.38
2019-06-08T09:43:50.145Z,472.50
2019-06-08T09:44:49.030Z,489.38
2019-06-08T09:45:49.027Z,478.12
2019-06-08T09:46:49.022Z,517.50
2019-06-08T09:47:48.994Z,517.50
2019-06-08T09:48:49.021Z,489.38
2019-06-08T09:49:49.051Z,438.75
2019-06-08T09:50:48.987Z,511.88
2019-06-08T09:51:48.997Z,585.00
2019-06-08T09:52:48.942Z,641.25
2019-06-08T09:53:48.937Z,708.75
2019-06-08T09:54:48.925Z,781.88
2019-06-08T09:55:48.953Z,804.38
2019-06-08T09:56:48.907Z,883.12
2019-06-08T09:57:48.906Z,815.62
2019-06-08T09:58:51.473Z,765.00
2019-06-08T09:59:48.879Z,770.62
2019-06-08T10:00:49.051Z,798.75
2019-06-08T10:01:48.879Z,849.38
2019-06-08T10:02:48.835Z,787.50
2019-06-08T10:03:48.832Z,855.00
2019-06-08T10:04:48.821Z,832.50
2019-06-08T10:05:48.832Z,804.38
2019-06-08T10:06:48.787Z,703.12
2019-06-08T10:07:48.870Z,635.62
2019-06-08T10:08:48.772Z,630.00
2019-06-08T10:09:50.222Z,742.50
2019-06-08T10:10:48.740Z,815.62
2019-06-08T10:11:48.731Z,922.50
2019-06-08T10:12:48.805Z,871.88
2019-06-08T10:13:48.777Z,905.62
2019-06-08T10:14:49.106Z,877.50
2019-06-08T10:15:51.557Z,810.00
2019-06-08T10:16:48.706Z,877.50
2019-06-08T10:17:48.685Z,821.25
2019-06-08T10:18:51.503Z,843.75
2019-06-08T10:19:48.691Z,883.12
2019-06-08T10:20:48.646Z,860.62
2019-06-08T10:21:48.634Z,871.88
2019-06-08T10:22:50.483Z,911.25
2019-06-08T10:23:48.594Z,978.75
2019-06-08T10:24:49.171Z,950.62
2019-06-08T10:25:48.639Z,894.38
2019-06-08T10:26:48.584Z,900.00
2019-06-08T10:27:48.554Z,922.50
2019-06-08T10:28:51.290Z,939.38
2019-06-08T10:29:48.545Z,933.75
2019-06-08T10:30:48.718Z,939.38
2019-06-08T10:31:48.567Z,978.75
2019-06-08T10:32:50.792Z,1018.12
2019-06-08T10:33:48.553Z,933.75
2019-06-08T10:34:48.477Z,911.25
2019-06-08T10:35:48.468Z,967.50
2019-06-08T10:36:48.497Z,1057.50
2019-06-08T10:37:51.245Z,1215.00
2019-06-08T10:38:48.481Z,798.75
2019-06-08T10:39:48.433Z,821.25
2019-06-08T10:40:48.416Z,703.12
2019-06-08T10:41:51.478Z,585.00
2019-06-08T10:42:48.431Z,568.12
2019-06-08T10:43:48.452Z,556.88
2019-06-08T10:44:48.368Z,585.00
2019-06-08T10:45:51.515Z,652.50
2019-06-08T10:46:48.461Z,731.25
2019-06-08T10:47:48.329Z,1355.62
2019-06-08T10:48:48.731Z,1333.12
2019-06-08T10:49:48.999Z,1271.25
2019-06-08T10:50:48.364Z,1108.12
2019-06-08T10:51:48.884Z,1231.88
2019-06-08T10:52:48.296Z,1209.38
2019-06-08T10:53:52.576Z,1215.00
2019-06-08T10:54:49.334Z,956.25
2019-06-08T10:55:48.300Z,1293.75
2019-06-08T10:56:48.658Z,787.50
2019-06-08T10:57:48.269Z,843.75
2019-06-08T10:58:49.825Z,1490.62
2019-06-08T10:59:48.666Z,871.88
2019-06-08T11:00:48.943Z,793.12
2019-06-08T11:01:48.181Z,1192.50
2019-06-08T11:02:48.916Z,1501.88
2019-06-08T11:03:48.870Z,826.88
2019-06-08T11:04:48.437Z,1479.38
2019-06-08T11:05:48.334Z,686.25
2019-06-08T11:06:48.197Z,663.75
2019-06-08T11:07:48.175Z,1513.12
2019-06-08T11:08:48.098Z,1541.25
2019-06-08T11:09:50.526Z,1237.50
2019-06-08T11:10:48.074Z,1473.75
2019-06-08T11:11:48.351Z,1451.25
2019-06-08T11:12:48.500Z,1338.75
2019-06-08T11:13:50.383Z,1546.88
2019-06-08T11:14:48.221Z,1676.25
2019-06-08T11:15:48.169Z,1338.75
2019-06-08T11:16:48.066Z,1153.12
2019-06-08T11:17:48.018Z,967.50
2019-06-08T11:18:50.797Z,1591.88
2019-06-08T11:19:48.190Z,1620.00
2019-06-08T11:20:48.024Z,753.75
2019-06-08T11:21:48.276Z,1569.38
2019-06-08T11:22:50.052Z,1198.12
2019-06-08T11:24:04.493Z,1473.75
2019-06-08T11:24:48.961Z,1530.00
2019-06-08T11:25:48.901Z,1333.12
2019-06-08T11:26:47.985Z,1698.75
2019-06-08T11:27:47.892Z,1715.62
2019-06-08T11:28:51.109Z,748.12
2019-06-08T11:29:47.886Z,742.50
2019-06-08T11:30:48.129Z,753.75
2019-06-08T11:31:50.746Z,1569.38
2019-06-08T11:32:48.084Z,1530.00
2019-06-08T11:33:49.014Z,1552.50
2019-06-08T11:34:48.784Z,1513.12
2019-06-08T11:35:47.819Z,1535.62
2019-06-08T11:36:48.429Z,1597.50
2019-06-08T11:37:48.864Z,1597.50
2019-06-08T11:38:47.955Z,1636.88
2019-06-08T11:39:49.195Z,686.25
2019-06-08T11:40:47.897Z,1659.38
2019-06-08T11:41:48.498Z,590.62
2019-06-08T11:42:48.546Z,1710.00
2019-06-08T11:43:47.732Z,1766.25
2019-06-08T11:44:47.944Z,714.38
2019-06-08T11:45:48.133Z,641.25
2019-06-08T11:46:47.825Z,742.50
2019-06-08T11:47:48.514Z,894.38
2019-06-08T11:48:48.516Z,843.75
2019-06-08T11:49:49.849Z,956.25
2019-06-08T11:50:49.062Z,2148.75
2019-06-08T11:51:47.933Z,2137.50
2019-06-08T11:52:49.294Z,2053.12
2019-06-08T11:53:51.257Z,1068.75
2019-06-08T11:54:48.104Z,2053.12
2019-06-08T11:55:51.146Z,2306.25
2019-06-08T11:56:48.205Z,1276.88
2019-06-08T11:57:48.775Z,1951.88
2019-06-08T11:58:48.572Z,2081.25
2019-06-08T11:59:48.495Z,2025.00
2019-06-08T12:00:48.889Z,1996.88
2019-06-08T12:01:50.259Z,1991.25
2019-06-08T12:02:48.600Z,1901.25
2019-06-08T12:03:48.347Z,1850.62
2019-06-08T12:04:47.486Z,1923.75
2019-06-08T12:05:47.802Z,2002.50
2019-06-08T12:06:48.388Z,2002.50
2019-06-08T12:07:48.141Z,2036.25
2019-06-08T12:08:47.485Z,2019.38
2019-06-08T12:09:49.950Z,2041.88
2019-06-08T12:10:49.132Z,2041.88
2019-06-08T12:11:48.078Z,1423.12
2019-06-08T12:12:47.439Z,1085.62
2019-06-08T12:13:47.532Z,2137.50
2019-06-08T12:14:47.696Z,2143.12
2019-06-08T12:15:48.800Z,2233.12
2019-06-08T12:16:48.587Z,995.62
2019-06-08T12:17:48.223Z,2385.00
2019-06-08T12:18:49.223Z,2368.12
2019-06-08T12:19:47.665Z,843.75
2019-06-08T12:20:48.823Z,770.62
2019-06-08T12:21:49.611Z,742.50
2019-06-08T12:22:48.314Z,770.62
2019-06-08T12:23:47.308Z,2278.12
2019-06-08T12:24:47.314Z,2160.00
2019-06-08T12:25:47.265Z,2171.25
2019-06-08T12:26:48.409Z,2148.75
2019-06-08T12:27:48.821Z,2221.88
2019-06-08T12:28:48.708Z,2317.50
2019-06-08T12:29:50.076Z,798.75
2019-06-08T12:30:47.888Z,2615.62
2019-06-08T12:31:47.200Z,984.38
2019-06-08T12:32:47.893Z,1136.25
2019-06-08T12:33:48.767Z,1046.25
2019-06-08T12:34:47.166Z,1130.62
2019-06-08T12:35:47.722Z,2176.88
2019-06-08T12:36:48.114Z,1383.75
2019-06-08T12:37:48.829Z,1113.75
2019-06-08T12:38:48.665Z,1355.62
2019-06-08T12:39:48.617Z,1698.75
2019-06-08T12:40:48.606Z,1158.75